createdAt,value
2022-08-25T00:00:25.825Z,13.38
2022-08-25T00:02:57.861Z,13.45
2022-08-25T00:05:29.471Z,13.38
2022-08-25T00:08:02.177Z,13.60
2022-08-25T00:10:33.169Z,13.93
2022-08-25T00:13:05.666Z,13.75
2022-08-25T00:15:35.389Z,14.23
2022-08-25T00:18:05.457Z,13.73
2022-08-25T00:20:49.062Z,13.88
2022-08-25T00:23:18.990Z,12.85
2022-08-25T00:25:48.826Z,12.68
2022-08-25T00:28:21.197Z,14.00
2022-08-25T00:30:50.892Z,13.50
2022-08-25T00:33:21.276Z,13.45
2022-08-25T00:35:50.915Z,12.80
2022-08-25T00:38:20.552Z,14.02
2022-08-25T00:41:05.960Z,13.75
2022-08-25T00:43:46.353Z,13.30
2022-08-25T00:46:18.771Z,14.05
2022-08-25T00:48:50.879Z,12.90
2022-08-25T00:51:22.286Z,12.38
2022-08-25T00:53:51.956Z,13.35
2022-08-25T00:56:21.677Z,12.88
2022-08-25T00:58:54.763Z,13.57
2022-08-25T01:01:24.433Z,13.20
2022-08-25T01:03:54.093Z,13.73
2022-08-25T01:06:23.984Z,14.85
2022-08-25T01:08:54.836Z,13.68
2022-08-25T01:11:24.538Z,13.63
2022-08-25T01:13:58.828Z,13.07
2022-08-25T01:16:28.789Z,13.48
2022-08-25T01:19:00.539Z,14.05
2022-08-25T01:21:34.642Z,14.15
2022-08-25T01:24:04.289Z,13.60
2022-08-25T01:26:35.340Z,13.73
2022-08-25T01:29:20.130Z,14.20
2022-08-25T01:31:49.963Z,12.43
2022-08-25T01:34:20.352Z,14.15
2022-08-25T01:36:52.650Z,15.00
2022-08-25T01:39:22.498Z,13.52
2022-08-25T01:42:13.731Z,13.40
2022-08-25T01:44:45.243Z,14.20
2022-08-25T01:47:15.335Z,13.68
2022-08-25T01:49:44.908Z,15.30
2022-08-25T01:52:18.673Z,14.23
2022-08-25T01:54:50.048Z,14.45
2022-08-25T01:57:19.711Z,14.30
2022-08-25T01:59:49.446Z,13.68
2022-08-25T02:02:19.222Z,15.07
2022-08-25T02:04:50.685Z,14.15
2022-08-25T02:07:23.169Z,14.10
2022-08-25T02:09:52.805Z,13.13
2022-08-25T02:12:22.383Z,14.60
2022-08-25T02:14:52.051Z,14.52
2022-08-25T02:17:21.649Z,13.57
2022-08-25T02:19:51.260Z,13.25
2022-08-25T02:22:23.459Z,15.07
2022-08-25T02:24:53.062Z,14.57
2022-08-25T02:27:24.424Z,13.82
2022-08-25T02:29:54.100Z,15.00
2022-08-25T02:32:23.689Z,13.63
2022-08-25T02:34:53.288Z,14.18
2022-08-25T02:37:25.551Z,14.80
2022-08-25T02:39:55.232Z,15.02
2022-08-25T02:42:24.904Z,14.57
2022-08-25T02:44:54.479Z,14.35
2022-08-25T02:47:26.930Z,14.20
2022-08-25T02:49:56.967Z,14.15
2022-08-25T02:52:29.229Z,14.98
2022-08-25T02:54:58.876Z,13.63
2022-08-25T02:57:28.549Z,14.23
2022-08-25T02:59:58.190Z,14.43
2022-08-25T03:02:28.036Z,14.73
2022-08-25T03:04:57.877Z,14.43
2022-08-25T03:07:30.262Z,14.38
2022-08-25T03:10:08.113Z,15.20
2022-08-25T03:12:37.759Z,14.02
2022-08-25T03:15:09.265Z,14.50
2022-08-25T03:17:45.719Z,14.95
2022-08-25T03:20:15.702Z,14.10
2022-08-25T03:22:47.924Z,13.48
2022-08-25T03:25:30.002Z,14.13
2022-08-25T03:27:59.712Z,15.25
2022-08-25T03:30:30.133Z,14.02
2022-08-25T03:32:59.743Z,13.75
2022-08-25T03:35:30.926Z,14.70
2022-08-25T03:38:03.696Z,14.45
2022-08-25T03:40:33.474Z,14.52
2022-08-25T03:43:04.068Z,14.20
2022-08-25T03:45:33.794Z,13.43
2022-08-25T03:48:03.555Z,14.73
2022-08-25T03:50:33.295Z,14.32
2022-08-25T03:53:05.585Z,16.40
2022-08-25T03:55:35.243Z,14.90
2022-08-25T03:58:04.965Z,14.38
2022-08-25T04:00:34.714Z,15.40
2022-08-25T04:03:04.328Z,15.20
2022-08-25T04:05:34.028Z,14.82
2022-08-25T04:08:08.161Z,14.90
2022-08-25T04:10:39.451Z,15.50
2022-08-25T04:13:09.147Z,15.52
2022-08-25T04:15:39.003Z,15.50
2022-08-25T04:18:08.727Z,14.95
2022-08-25T04:20:38.306Z,15.73
2022-08-25T04:23:10.721Z,15.73
2022-08-25T04:25:43.666Z,15.93
2022-08-25T04:28:15.826Z,14.48
2022-08-25T04:30:49.117Z,15.45
2022-08-25T04:33:21.329Z,15.57
2022-08-25T04:35:53.039Z,15.02
2022-08-25T04:38:25.264Z,15.90
2022-08-25T04:40:58.791Z,15.95
2022-08-25T04:43:28.568Z,16.00
2022-08-25T04:45:58.493Z,16.42
2022-08-25T04:48:28.736Z,15.02
2022-08-25T04:50:58.325Z,16.50
2022-08-25T04:53:30.544Z,16.88
2022-08-25T04:56:03.647Z,15.82
2022-08-25T04:58:33.667Z,15.63
2022-08-25T05:01:04.774Z,15.57
2022-08-25T05:03:35.223Z,16.58
2022-08-25T05:06:04.934Z,15.90
2022-08-25T05:08:37.743Z,14.75
2022-08-25T05:11:08.245Z,15.98
2022-08-25T05:13:38.843Z,16.42
2022-08-25T05:16:09.932Z,16.30
2022-08-25T05:18:41.198Z,16.65
2022-08-25T05:21:12.475Z,17.15
2022-08-25T05:23:44.929Z,17.67
2022-08-25T05:26:19.778Z,17.42
2022-08-25T05:28:51.454Z,16.33
2022-08-25T05:31:22.161Z,17.83
2022-08-25T05:33:51.928Z,16.60
2022-08-25T05:36:22.425Z,15.93
2022-08-25T05:38:54.613Z,16.45
2022-08-25T05:41:25.285Z,16.08
2022-08-25T05:43:55.175Z,17.10
2022-08-25T05:46:25.278Z,19.00
2022-08-25T05:48:54.937Z,17.60
2022-08-25T05:51:24.598Z,17.15
2022-08-25T05:53:57.214Z,18.35
2022-08-25T05:56:26.835Z,16.17
2022-08-25T05:58:57.001Z,19.50
2022-08-25T06:01:39.514Z,15.90
2022-08-25T06:04:09.137Z,16.17
2022-08-25T06:06:39.075Z,15.70
2022-08-25T06:09:11.433Z,16.05
2022-08-25T06:11:42.085Z,16.35
2022-08-25T06:14:12.601Z,15.45
2022-08-25T06:16:42.488Z,15.45
2022-08-25T06:19:12.871Z,15.82
2022-08-25T06:21:42.615Z,14.90
2022-08-25T06:24:15.851Z,14.23
2022-08-25T06:26:45.926Z,14.48
2022-08-25T06:29:16.214Z,14.57
2022-08-25T06:31:46.546Z,14.80
2022-08-25T06:34:16.471Z,15.43
2022-08-25T06:36:49.034Z,14.27
2022-08-25T06:39:21.803Z,14.85
2022-08-25T06:41:54.037Z,15.15
2022-08-25T06:44:23.705Z,13.88
2022-08-25T06:46:53.911Z,14.80
2022-08-25T06:49:24.049Z,16.05
2022-08-25T06:51:53.903Z,15.10
2022-08-25T06:54:26.154Z,13.82
2022-08-25T06:56:55.768Z,13.73
2022-08-25T06:59:32.177Z,12.88
2022-08-25T07:02:03.305Z,13.20
2022-08-25T07:04:33.406Z,13.00
2022-08-25T07:07:03.500Z,13.25
2022-08-25T07:09:39.144Z,14.43
2022-08-25T07:12:09.562Z,12.07
2022-08-25T07:14:39.218Z,12.10
2022-08-25T07:17:10.560Z,13.07
2022-08-25T07:19:42.227Z,12.80
2022-08-25T07:22:11.851Z,12.32
2022-08-25T07:24:44.108Z,12.90
2022-08-25T07:27:13.713Z,11.75
2022-08-25T07:29:43.333Z,14.30
2022-08-25T07:32:12.963Z,12.10
2022-08-25T07:34:54.997Z,13.00
2022-08-25T07:40:19.938Z,11.82
2022-08-25T07:42:49.706Z,11.85
2022-08-25T07:45:20.696Z,12.55
2022-08-25T07:47:53.958Z,11.38
2022-08-25T07:50:26.137Z,11.18
2022-08-25T07:52:55.761Z,12.98
2022-08-25T07:55:28.405Z,10.82
2022-08-25T07:57:59.872Z,11.00
2022-08-25T08:00:30.410Z,11.77
2022-08-25T08:03:00.344Z,10.65
2022-08-25T08:05:33.745Z,10.73
2022-08-25T08:08:03.788Z,10.00
2022-08-25T08:11:03.267Z,10.65
2022-08-25T08:13:26.864Z,10.85
2022-08-25T08:15:56.537Z,10.13
2022-08-25T08:18:26.225Z,10.52
2022-08-25T08:20:55.842Z,11.10
2022-08-25T08:23:27.944Z,10.95
2022-08-25T08:26:00.888Z,12.02
2022-08-25T08:28:31.355Z,10.15
2022-08-25T08:31:01.027Z,9.27
2022-08-25T08:33:31.616Z,10.55
2022-08-25T08:36:06.071Z,11.27
2022-08-25T08:38:36.425Z,12.07
2022-08-25T08:41:24.265Z,12.07
2022-08-25T08:43:57.176Z,11.03
2022-08-25T08:46:28.104Z,10.90
2022-08-25T08:49:03.414Z,12.60
2022-08-25T08:51:39.750Z,10.80
2022-08-25T08:54:15.529Z,10.52
2022-08-25T08:56:52.845Z,10.05
2022-08-25T08:59:30.520Z,10.80
2022-08-25T09:02:02.442Z,10.70
2022-08-25T09:04:34.712Z,9.43
2022-08-25T09:07:07.822Z,10.68
2022-08-25T09:09:40.260Z,9.60
2022-08-25T09:12:18.118Z,11.20
2022-08-25T09:14:57.526Z,10.38
2022-08-25T09:17:31.810Z,10.32
2022-08-25T09:20:23.986Z,10.88
2022-08-25T09:22:56.991Z,9.63
2022-08-25T09:25:52.527Z,10.43
2022-08-25T09:28:29.613Z,9.50
2022-08-25T09:31:02.256Z,9.82
2022-08-25T09:33:34.208Z,9.57
2022-08-25T09:36:08.772Z,9.77
2022-08-25T09:38:38.900Z,9.27
2022-08-25T09:41:11.452Z,9.15
2022-08-25T09:43:44.834Z,9.25
2022-08-25T09:46:16.029Z,8.95
2022-08-25T09:48:56.109Z,9.43
2022-08-25T09:51:28.541Z,8.40
2022-08-25T09:54:01.484Z,8.35
2022-08-25T09:56:50.945Z,8.20
2022-08-25T09:59:34.728Z,9.80
2022-08-25T10:02:06.778Z,9.68
2022-08-25T10:04:38.693Z,8.18
2022-08-25T10:07:24.168Z,9.32
2022-08-25T10:09:57.568Z,9.10
2022-08-25T10:12:28.231Z,11.10
2022-08-25T10:15:00.504Z,10.98
2022-08-25T10:17:31.565Z,10.65
2022-08-25T10:20:17.337Z,10.15
2022-08-25T10:22:50.456Z,8.52
2022-08-25T10:25:25.616Z,9.80
2022-08-25T10:27:58.591Z,8.73
2022-08-25T10:30:33.741Z,8.35
2022-08-25T10:33:10.025Z,7.93
2022-08-25T10:35:46.597Z,7.00
2022-08-25T10:38:22.625Z,7.65
2022-08-25T10:41:00.469Z,9.15
2022-08-25T10:43:34.351Z,6.50
2022-08-25T10:46:09.565Z,7.40
2022-08-25T10:48:55.524Z,7.20
2022-08-25T10:51:45.913Z,7.57
2022-08-25T10:54:28.252Z,7.00
2022-08-25T10:57:01.977Z,6.68
2022-08-25T10:59:37.577Z,8.02
2022-08-25T11:02:22.194Z,6.93
2022-08-25T11:04:56.194Z,7.15
2022-08-25T11:07:28.172Z,7.05
2022-08-25T11:10:01.919Z,6.63
2022-08-25T11:12:35.055Z,6.45
2022-08-25T11:15:08.524Z,8.77
2022-08-25T11:17:43.000Z,6.82
2022-08-25T11:20:26.626Z,7.10
2022-08-25T11:23:11.649Z,6.30
2022-08-25T11:25:44.031Z,6.75
2022-08-25T11:28:15.956Z,7.10
2022-08-25T11:30:46.494Z,6.40
2022-08-25T11:33:17.421Z,7.30
2022-08-25T11:35:53.998Z,7.03
2022-08-25T11:38:31.266Z,6.57
2022-08-25T11:41:11.084Z,6.40
2022-08-25T11:43:49.371Z,7.57
2022-08-25T11:46:40.234Z,6.43
2022-08-25T11:49:21.801Z,6.25
2022-08-25T11:51:54.600Z,6.10
2022-08-25T11:54:37.192Z,6.28
2022-08-25T11:57:08.737Z,6.40
2022-08-25T11:59:56.062Z,6.85
2022-08-25T12:02:34.097Z,6.90
2022-08-25T12:05:04.394Z,6.15
2022-08-25T12:07:49.680Z,7.00
2022-08-25T12:10:26.179Z,6.57
2022-08-25T12:12:59.783Z,7.00
2022-08-25T12:15:31.386Z,6.35
2022-08-25T12:18:12.806Z,6.43
2022-08-25T12:20:58.410Z,6.40
2022-08-25T12:23:30.918Z,6.68
2022-08-25T12:26:05.667Z,6.07
2022-08-25T12:28:44.941Z,6.28
2022-08-25T12:31:22.416Z,6.00
2022-08-25T12:33:57.901Z,6.60
2022-08-25T12:36:31.641Z,6.03
2022-08-25T12:39:24.302Z,5.45
2022-08-25T12:45:10.716Z,6.32
2022-08-25T12:47:44.340Z,5.75
2022-08-25T12:50:29.464Z,5.63
2022-08-25T12:53:00.310Z,5.57
2022-08-25T12:55:30.089Z,5.47
2022-08-25T12:58:03.685Z,6.15
2022-08-25T13:00:35.953Z,5.53
2022-08-25T13:03:23.193Z,5.80
2022-08-25T13:06:05.928Z,5.60
2022-08-25T13:08:56.115Z,5.28
2022-08-25T13:11:27.952Z,5.32
2022-08-25T13:14:03.687Z,5.32
2022-08-25T13:16:34.063Z,4.88
2022-08-25T13:19:08.337Z,5.70
2022-08-25T13:21:39.758Z,5.43
2022-08-25T13:24:12.702Z,5.50
2022-08-25T13:26:48.360Z,5.05
2022-08-25T13:29:22.991Z,5.20
2022-08-25T13:31:54.094Z,5.25
2022-08-25T13:34:34.511Z,4.88
2022-08-25T13:37:21.262Z,5.28
2022-08-25T13:39:56.170Z,4.78
2022-08-25T13:42:29.035Z,4.30
2022-08-25T13:45:01.693Z,4.80
2022-08-25T13:47:45.269Z,5.00
2022-08-25T13:50:20.628Z,5.45
2022-08-25T13:52:51.697Z,4.75
2022-08-25T13:55:27.443Z,5.18
2022-08-25T13:57:59.373Z,4.97
2022-08-25T14:00:35.108Z,5.20
2022-08-25T14:03:12.621Z,4.65
2022-08-25T14:05:44.037Z,5.35
2022-08-25T14:08:32.416Z,4.75
2022-08-25T14:11:14.897Z,5.20
2022-08-25T14:13:46.111Z,5.90
2022-08-25T14:16:22.233Z,4.85
2022-08-25T14:18:58.642Z,4.63
2022-08-25T14:21:29.921Z,5.10
2022-08-25T14:24:00.247Z,5.50
2022-08-25T14:26:29.917Z,5.15
2022-08-25T14:29:00.261Z,5.47
2022-08-25T14:31:34.297Z,4.40
2022-08-25T14:34:05.405Z,4.88
2022-08-25T14:36:36.285Z,5.75
2022-08-25T14:39:08.906Z,5.30
2022-08-25T14:41:40.911Z,5.82
2022-08-25T14:44:11.727Z,4.82
2022-08-25T14:46:47.154Z,4.85
2022-08-25T14:49:24.969Z,5.70
2022-08-25T14:51:55.444Z,5.40
2022-08-25T14:54:27.313Z,5.45
2022-08-25T14:56:57.483Z,4.35
2022-08-25T14:59:27.999Z,4.78
2022-08-25T15:02:01.655Z,4.93
2022-08-25T15:04:32.880Z,6.43
2022-08-25T15:07:23.250Z,5.40
2022-08-25T15:09:50.877Z,5.57
2022-08-25T15:12:46.115Z,5.43
2022-08-25T15:15:13.432Z,5.60
2022-08-25T15:17:47.248Z,5.55
2022-08-25T15:20:19.273Z,5.50
2022-08-25T15:22:49.013Z,5.15
2022-08-25T15:25:18.905Z,5.72
2022-08-25T15:27:48.996Z,5.70
2022-08-25T15:30:18.758Z,5.28
2022-08-25T15:32:51.279Z,5.03
2022-08-25T15:35:27.610Z,5.45
2022-08-25T15:37:58.656Z,5.57
2022-08-25T15:40:28.439Z,5.05
2022-08-25T15:42:58.207Z,5.05
2022-08-25T15:45:28.445Z,5.97
2022-08-25T15:48:00.792Z,6.25
2022-08-25T15:50:30.540Z,5.45
2022-08-25T15:53:00.152Z,5.72
2022-08-25T15:55:29.832Z,5.80
2022-08-25T15:57:59.479Z,5.32
2022-08-25T16:00:29.180Z,5.40
2022-08-25T16:03:04.159Z,5.78
2022-08-25T16:05:33.867Z,4.93
2022-08-25T16:08:03.504Z,5.38
2022-08-25T16:10:36.265Z,5.90
2022-08-25T16:13:06.185Z,5.05
2022-08-25T16:15:38.687Z,4.80
2022-08-25T16:18:11.145Z,4.53
2022-08-25T16:20:40.764Z,4.50
2022-08-25T16:23:10.354Z,4.93
2022-08-25T16:25:41.824Z,5.20
2022-08-25T16:28:12.010Z,4.95
2022-08-25T16:30:42.678Z,5.25
2022-08-25T16:33:22.542Z,6.07
2022-08-25T16:35:52.186Z,4.45
2022-08-25T16:38:21.797Z,4.90
2022-08-25T16:40:51.450Z,4.53
2022-08-25T16:43:21.565Z,4.35
2022-08-25T16:45:59.532Z,5.75
2022-08-25T16:48:34.048Z,4.93
2022-08-25T16:51:03.776Z,4.82
2022-08-25T16:53:47.323Z,4.55
2022-08-25T16:56:18.492Z,5.18
2022-08-25T16:58:48.547Z,4.25
2022-08-25T17:01:22.038Z,4.55
2022-08-25T17:03:55.855Z,5.20
2022-08-25T17:06:26.194Z,4.47
2022-08-25T17:08:55.861Z,7.68
2022-08-25T17:11:26.978Z,7.80
2022-08-25T17:13:58.916Z,5.90
2022-08-25T17:16:30.137Z,5.90
2022-08-25T17:19:04.619Z,6.70
2022-08-25T17:21:37.826Z,6.22
2022-08-25T17:24:08.055Z,6.60
2022-08-25T17:26:39.753Z,8.57
2022-08-25T17:29:10.019Z,12.95
2022-08-25T17:31:40.408Z,8.43
2022-08-25T17:34:16.320Z,8.10
2022-08-25T17:36:47.489Z,7.65
2022-08-25T17:39:18.596Z,8.23
2022-08-25T17:41:48.686Z,9.65
2022-08-25T17:44:18.380Z,8.55
2022-08-25T17:46:49.366Z,8.68
2022-08-25T17:49:22.566Z,6.53
2022-08-25T17:51:52.783Z,7.45
2022-08-25T17:54:22.424Z,8.23
2022-08-25T17:56:52.800Z,6.72
2022-08-25T17:59:22.744Z,6.82
2022-08-25T18:01:55.462Z,5.32
2022-08-25T18:04:29.724Z,5.85
2022-08-25T18:07:00.286Z,6.93
2022-08-25T18:09:30.278Z,6.28
2022-08-25T18:12:00.271Z,6.35
2022-08-25T18:14:30.274Z,6.70
2022-08-25T18:17:01.805Z,6.60
2022-08-25T18:19:34.337Z,5.90
2022-08-25T18:22:06.455Z,5.50
2022-08-25T18:24:36.773Z,6.13
2022-08-25T18:27:07.502Z,6.38
2022-08-25T18:29:38.032Z,5.90
2022-08-25T18:32:10.531Z,6.63
2022-08-25T18:34:45.708Z,6.70
2022-08-25T18:37:28.051Z,6.72
2022-08-25T18:40:10.435Z,5.43
2022-08-25T18:42:40.443Z,4.82
2022-08-25T18:45:12.619Z,5.07
2022-08-25T18:47:42.857Z,6.30
2022-08-25T18:50:15.659Z,6.15
2022-08-25T18:52:45.933Z,7.15
2022-08-25T18:55:15.971Z,6.78
2022-08-25T18:57:46.677Z,6.25
2022-08-25T19:00:18.673Z,6.63
2022-08-25T19:02:50.411Z,6.60
2022-08-25T19:05:25.063Z,6.30
2022-08-25T19:07:55.156Z,5.88
2022-08-25T19:10:25.241Z,6.65
2022-08-25T19:12:56.951Z,6.22
2022-08-25T19:15:27.617Z,6.35
2022-08-25T19:17:58.928Z,7.75
2022-08-25T19:20:35.281Z,5.43
2022-08-25T19:23:07.760Z,5.68
2022-08-25T19:25:41.499Z,6.03
2022-08-25T19:28:13.080Z,5.45
2022-08-25T19:30:50.420Z,6.20
2022-08-25T19:33:42.588Z,5.90
2022-08-25T19:36:17.059Z,5.53
2022-08-25T19:38:47.821Z,6.03
2022-08-25T19:41:18.024Z,6.30
2022-08-25T19:43:56.781Z,6.78
2022-08-25T19:46:32.353Z,6.15
2022-08-25T19:49:07.735Z,6.60
2022-08-25T19:51:44.214Z,6.78
2022-08-25T19:54:18.787Z,6.22
2022-08-25T19:56:54.961Z,5.95
2022-08-25T19:59:25.846Z,6.30
2022-08-25T20:01:55.708Z,5.53
2022-08-25T20:04:25.517Z,7.20
2022-08-25T20:06:58.534Z,6.35
2022-08-25T20:09:39.045Z,5.80
2022-08-25T20:15:03.640Z,5.38
2022-08-25T20:17:34.141Z,6.15
2022-08-25T20:20:05.192Z,5.80
2022-08-25T20:22:38.162Z,6.03
2022-08-25T20:25:13.454Z,5.93
2022-08-25T20:27:44.809Z,6.43
2022-08-25T20:30:16.583Z,5.72
2022-08-25T20:32:47.032Z,6.00
2022-08-25T20:35:19.667Z,5.80
2022-08-25T20:37:53.177Z,6.57
2022-08-25T20:40:25.369Z,5.72
2022-08-25T20:42:55.838Z,6.28
2022-08-25T20:45:25.711Z,6.70
2022-08-25T20:47:55.333Z,6.38
2022-08-25T20:50:25.774Z,7.30
2022-08-25T20:52:58.863Z,8.07
2022-08-25T20:55:30.703Z,8.25
2022-08-25T20:58:00.508Z,8.43
2022-08-25T21:00:30.156Z,6.30
2022-08-25T21:02:59.769Z,7.18
2022-08-25T21:05:30.182Z,7.50
2022-08-25T21:08:03.956Z,6.80
2022-08-25T21:10:33.626Z,7.00
2022-08-25T21:13:03.567Z,7.78
2022-08-25T21:15:34.460Z,7.60
2022-08-25T21:18:04.283Z,7.63
2022-08-25T21:20:46.163Z,7.07
2022-08-25T21:23:18.789Z,6.38
2022-08-25T21:25:48.483Z,6.82
2022-08-25T21:28:18.262Z,7.25
2022-08-25T21:30:50.801Z,7.35
2022-08-25T21:33:26.337Z,6.97
2022-08-25T21:35:58.130Z,7.28
2022-08-25T21:38:30.809Z,6.63
2022-08-25T21:41:00.725Z,7.40
2022-08-25T21:43:30.295Z,6.15
2022-08-25T21:46:00.046Z,7.35
2022-08-25T21:48:29.785Z,7.25
2022-08-25T21:51:06.359Z,6.55
2022-08-25T21:53:38.595Z,7.15
2022-08-25T21:56:08.843Z,7.03
2022-08-25T21:58:39.282Z,6.95
2022-08-25T22:01:11.239Z,6.80
2022-08-25T22:03:42.403Z,7.93
2022-08-25T22:06:21.923Z,7.93
2022-08-25T22:08:54.572Z,6.72
2022-08-25T22:11:24.157Z,7.35
2022-08-25T22:13:55.196Z,6.80
2022-08-25T22:16:27.377Z,7.57
2022-08-25T22:18:59.649Z,7.05
2022-08-25T22:21:32.093Z,7.82
2022-08-25T22:24:04.476Z,7.28
2022-08-25T22:26:35.044Z,7.30
2022-08-25T22:29:04.777Z,7.60
2022-08-25T22:31:36.231Z,7.90
2022-08-25T22:34:07.471Z,7.72
2022-08-25T22:36:38.165Z,6.88
2022-08-25T22:39:10.946Z,7.50
2022-08-25T22:41:41.677Z,7.57
2022-08-25T22:44:12.374Z,7.93
2022-08-25T22:46:41.992Z,7.93
2022-08-25T22:49:14.999Z,7.47
2022-08-25T22:51:46.910Z,6.93
2022-08-25T22:54:19.397Z,7.63
2022-08-25T22:56:49.037Z,7.45
2022-08-25T22:59:18.706Z,7.68
2022-08-25T23:01:48.554Z,7.53
2022-08-25T23:04:19.066Z,8.10
2022-08-25T23:07:03.388Z,7.47
2022-08-25T23:09:35.610Z,7.07
2022-08-25T23:12:05.386Z,6.95
2022-08-25T23:14:36.806Z,6.63
2022-08-25T23:17:07.696Z,7.28
2022-08-25T23:19:37.473Z,8.13
2022-08-25T23:22:11.103Z,8.13
2022-08-25T23:24:44.448Z,8.23
2022-08-25T23:27:15.671Z,7.30
2022-08-25T23:29:47.436Z,8.32
2022-08-25T23:32:18.471Z,8.50
2022-08-25T23:34:49.041Z,8.40
2022-08-25T23:37:19.588Z,7.75
2022-08-25T23:39:51.938Z,7.30
2022-08-25T23:42:22.141Z,7.43
2022-08-25T23:44:51.814Z,8.32
2022-08-25T23:47:21.603Z,8.00
2022-08-25T23:49:52.316Z,7.55
2022-08-25T23:52:21.962Z,8.68
2022-08-25T23:54:54.430Z,8.23
2022-08-25T23:57:24.178Z,7.60
2022-08-25T23:59:54.293Z,8.48
